Latest Weather Observations for Brisbane

IDQ60901

Issued at 2:45 pm EST Saturday 2 August 2014 (issued every 10 minutes, with the page automatically refreshed every 10 minutes)

About weather observations | Map of Brisbane area stations | Latest observations for Brisbane area | Other Formats
Station Details ID: 040913 Name: BRISBANE Lat: -27.48 Lon: 153.04 Height: 8.13 m
Data from the previous 72 hours. | See also: Recent months at Brisbane
Date/Time
EST
Tmp

°C
App
Tmp
°C
Dew
Point
°C
Rel
Hum
%
Delta-T

°C
Wind Press
QNH
hPa
Press
MSL
hPa
Rain
since
9 am
mm
Dir
 
Spd
km/h
Gust
km/h
Spd
kts
Gust
kts
02/02:30pm 20.8 16.5 -11.9 10 11.4 SE 6 13 3 7 1021.9 - 0.0
02/02:00pm 20.5 16.2 -10.9 11 11.1 SE 6 19 3 10 1021.8 1021.8 0.0
02/01:30pm 21.2 17.4 -9.3 12 11.3 SSE 4 13 2 7 1021.8 - 0.0
02/01:00pm 20.4 16.1 -8.9 13 10.8 SSE 7 19 4 10 1021.7 1021.7 0.0
02/12:30pm 19.9 15.3 -8.4 14 10.5 SSE 9 19 5 10 1022.0 - 0.0
02/12:00pm 19.7 16.0 -4.5 19 9.7 WSW 6 11 3 6 1022.4 1022.4 0.0
02/11:30am 18.9 14.6 -5.2 19 9.5 WSW 9 19 5 10 1022.7 - 0.0
02/11:00am 18.6 14.7 -4.8 20 9.2 SW 7 15 4 8 1022.9 1022.9 0.0
02/10:30am 17.8 13.6 -4.2 22 8.7 SW 9 20 5 11 1023.1 - 0.0
02/10:00am 16.6 11.9 -4.6 23 8.2 WSW 11 20 6 11 1023.3 1023.3 0.0
02/09:30am 16.4 12.4 -2.6 27 7.7 SW 9 19 5 10 1023.4 - 0.0
02/09:00am 15.0 10.5 -2.9 29 7.1 WSW 11 24 6 13 1023.3 1023.3 0.0
02/08:30am 14.1 8.9 -2.8 31 6.6 WSW 15 24 8 13 1023.0 - 0.0
02/08:00am 13.4 8.6 -2.5 33 6.2 WSW 13 28 7 15 1022.8 1022.8 0.0
02/07:30am 12.9 8.2 -1.8 36 5.8 WSW 13 24 7 13 1022.3 - 0.0
02/07:00am 12.4 8.2 -1.1 39 5.4 WSW 11 20 6 11 1021.8 1021.8 0.0
02/06:30am 12.7 8.6 -0.2 41 5.3 WSW 11 24 6 13 1021.4 - 0.0
02/06:00am 13.3 9.6 0.0 40 5.5 WSW 9 19 5 10 1020.5 1020.5 0.0
02/05:30am 13.7 10.1 0.4 40 5.6 WSW 9 26 5 14 1020.0 - 0.0
02/05:00am 14.2 10.6 0.8 40 5.7 WSW 9 17 5 9 1019.3 1019.3 0.0
02/04:30am 14.3 11.6 2.9 46 5.1 SW 6 11 3 6 1019.0 - 0.0
02/04:00am 15.1 12.3 3.0 44 5.4 WSW 7 15 4 8 1018.5 1018.5 0.0
02/03:30am 15.9 12.8 3.4 43 5.7 WSW 9 20 5 11 1018.5 - 0.0
02/03:00am 16.0 13.2 3.4 43 5.8 W 7 15 4 8 1018.3 1018.3 0.0
02/02:30am 16.3 13.6 3.7 43 5.8 WSW 7 15 4 8 1018.1 - 0.0
02/02:00am 15.5 13.6 3.0 43 5.6 WSW 2 7 1 4 1018.0 1018.0 0.0
02/01:30am 15.5 13.9 2.3 41 5.9 CALM 0 4 0 2 1017.9 - 0.0
02/01:00am 17.4 14.9 1.4 34 7.1 W 4 9 2 5 1017.7 1017.7 0.0
02/12:30am 18.1 14.6 1.2 32 7.5 W 9 15 5 8 1017.1 - 0.0
02/12:00am 18.8 15.6 0.9 30 8.0 W 7 11 4 6 1016.5 1016.5 0.0
 
Date/Time
EST
Tmp

°C
App
Tmp
°C
Dew
Point
°C
Rel
Hum
%
Delta-T

°C
Wind Press
QNH
hPa
Press
MSL
hPa
Rain
since
9 am
mm
Dir
 
Spd
km/h
Gust
km/h
Spd
kts
Gust
kts
01/11:30pm 17.7 14.8 1.7 34 7.2 W 6 9 3 5 1016.1 - 0.0
01/11:00pm 19.6 16.6 1.1 29 8.3 W 6 9 3 5 1015.8 1015.8 0.0
01/10:30pm 20.8 17.4 2.1 29 8.7 WSW 9 19 5 10 1015.2 - 0.0
01/10:00pm 18.2 16.2 6.4 46 5.8 W 6 11 3 6 1014.9 1014.9 0.0
01/09:30pm 15.2 15.4 10.4 73 2.5 CALM 0 0 0 0 1014.3 - 0.0
01/09:00pm 15.9 15.9 9.8 67 3.2 CALM 0 0 0 0 1013.9 1013.9 0.0
01/08:30pm 17.1 17.0 9.5 61 4.0 CALM 0 0 0 0 1013.5 - 0.0
01/08:00pm 18.8 18.8 9.8 56 4.8 CALM 0 4 0 2 1013.3 1013.3 0.0
01/07:30pm 20.6 20.1 9.5 49 5.9 NE 2 6 1 3 1013.1 - 0.0
01/07:00pm 24.1 22.0 5.9 31 9.3 NW 6 9 3 5 1012.5 1012.5 0.0
01/06:30pm 24.2 22.0 5.5 30 9.5 NNW 6 11 3 6 1012.2 - 0.0
01/06:00pm 25.3 23.0 5.0 27 10.3 NW 6 11 3 6 1011.7 1011.7 0.0
01/05:30pm 25.6 22.8 5.2 27 10.4 WNW 9 20 5 11 1011.3 - 0.0
01/05:00pm 26.4 23.7 5.4 26 10.8 NW 9 15 5 8 1010.9 1010.9 0.0
01/04:30pm 27.6 24.0 5.2 24 11.5 WNW 13 26 7 14 1010.8 - 0.0
01/04:00pm 28.0 24.9 5.6 24 11.6 WNW 11 20 6 11 1010.8 1010.8 0.0
01/03:30pm 27.6 23.4 5.8 25 11.3 W 17 28 9 15 1010.7 - 0.0
01/03:00pm 27.4 24.3 7.3 28 10.7 WNW 13 22 7 12 1010.8 1010.8 0.0
01/02:30pm 27.1 23.3 7.5 29 10.5 W 17 28 9 15 1011.0 - 0.0
01/02:00pm 26.9 24.5 8.8 32 9.9 NW 11 20 6 11 1011.4 1011.4 0.0
01/01:30pm 26.8 24.6 9.2 33 9.7 WNW 11 28 6 15 1011.8 - 0.0
01/01:00pm 28.0 26.8 10.2 33 10.0 WNW 7 13 4 7 1012.2 1012.2 0.0
01/12:30pm 26.6 24.0 9.5 34 9.4 WNW 13 22 7 12 1012.8 - 0.0
01/12:00pm 26.2 25.1 10.0 36 9.0 W 6 15 3 8 1013.3 1013.3 0.0
01/11:30am 25.0 24.9 12.2 44 7.3 SSE 4 7 2 4 1014.1 - 0.0
01/11:00am 24.1 24.2 12.7 49 6.6 SW 4 6 2 3 1014.8 1014.8 0.0
01/10:30am 22.1 22.3 11.8 52 5.8 W 2 7 1 4 1015.3 - 0.0
01/10:00am 21.6 22.0 12.5 56 5.1 E 2 4 1 2 1015.7 1015.7 0.0
01/09:30am 20.1 19.9 11.8 59 4.6 NNW 4 7 2 4 1016.1 - 0.0
01/09:00am 19.3 20.2 12.8 66 3.7 CALM 0 2 0 1 1016.4 1016.4 0.0
01/08:30am 17.6 18.3 12.1 70 3.0 CALM 0 0 0 0 1016.4 - 0.0
01/08:00am 15.7 16.3 11.9 78 2.1 CALM 0 0 0 0 1016.3 1016.3 0.0
01/07:30am 13.6 14.2 12.0 90 0.9 CALM 0 0 0 0 1016.5 - 0.0
01/07:00am 11.2 11.3 10.3 94 0.5 CALM 0 0 0 0 1016.3 1016.3 0.0
01/06:30am 10.7 10.6 9.6 93 0.6 CALM 0 0 0 0 1016.0 - 0.0
01/06:00am 11.2 11.3 10.0 92 0.6 CALM 0 0 0 0 1016.0 1016.0 0.0
01/05:30am 11.8 11.9 10.2 90 0.8 CALM 0 0 0 0 1016.0 - 0.0
01/05:00am 12.5 12.8 10.9 90 0.8 CALM 0 4 0 2 1015.9 1015.9 0.0
01/04:30am 12.3 12.6 10.9 91 0.7 CALM 0 0 0 0 1015.7 - 0.0
01/04:00am 12.5 12.9 11.2 92 0.7 CALM 0 0 0 0 1015.6 1015.6 0.0
01/03:30am 12.9 13.2 11.0 88 1.0 CALM 0 0 0 0 1015.6 - 0.0
01/03:00am 14.1 14.5 11.3 83 1.5 CALM 0 0 0 0 1015.7 1015.7 0.0
01/02:30am 14.9 15.4 11.7 81 1.7 CALM 0 4 0 2 1015.9 - 0.0
01/02:00am 15.8 16.4 12.0 78 2.1 CALM 0 4 0 2 1016.2 1016.2 0.0
01/01:30am 16.6 16.7 12.6 77 2.2 NNW 4 9 2 5 1016.4 - 0.0
01/01:00am 17.2 16.9 12.7 75 2.5 NNW 6 13 3 7 1016.4 1016.4 0.0
01/12:30am 17.8 17.0 12.9 73 2.7 N 9 26 5 14 1016.7 - 0.0
01/12:00am 18.0 17.2 12.9 72 2.9 N 9 20 5 11 1016.9 1016.9 0.0
 
Date/Time
EST
Tmp

°C
App
Tmp
°C
Dew
Point
°C
Rel
Hum
%
Delta-T

°C
Wind Press
QNH
hPa
Press
MSL
hPa
Rain
since
9 am
mm
Dir
 
Spd
km/h
Gust
km/h
Spd
kts
Gust
kts
31/11:30pm 18.3 17.9 13.0 71 3.0 N 7 17 4 9 1017.2 - 0.0
31/11:00pm 18.0 17.5 12.7 71 3.0 NNW 7 15 4 8 1017.1 1017.1 0.0
31/10:30pm 18.1 17.8 12.8 71 3.0 N 6 17 3 9 1017.2 - 0.0
31/10:00pm 18.0 17.6 12.9 72 2.9 N 7 13 4 7 1017.3 1017.3 0.0
31/09:30pm 18.1 17.6 12.8 71 3.0 N 7 13 4 7 1017.2 - 0.0
31/09:00pm 18.4 18.1 12.8 70 3.1 N 6 13 3 7 1017.3 1017.3 0.0
31/08:30pm 18.7 18.5 13.1 70 3.2 N 6 19 3 10 1017.3 - 0.0
31/08:00pm 18.8 18.4 13.0 69 3.3 N 7 17 4 9 1017.2 1017.2 0.0
31/07:30pm 18.7 18.5 13.1 70 3.2 N 6 11 3 6 1016.8 - 0.0
31/07:00pm 18.1 18.3 11.7 66 3.5 NNE 2 6 1 3 1016.4 1016.4 0.0
31/06:30pm 18.6 18.7 12.8 69 3.3 N 4 9 2 5 1016.2 - 0.0
31/06:00pm 19.2 19.3 14.0 72 3.0 NNE 6 9 3 5 1016.0 1016.0 0.0
31/05:30pm 19.4 19.7 14.4 73 2.9 N 6 15 3 8 1015.8 - 0.0
31/05:00pm 20.3 20.3 14.2 68 3.5 NNE 7 20 4 11 1015.7 1015.7 0.0
31/04:30pm 21.7 22.2 14.1 62 4.4 NE 4 9 2 5 1015.6 - 0.0
31/04:00pm 22.2 21.7 13.8 59 4.9 NNE 9 17 5 9 1015.5 1015.5 0.0
31/03:30pm 22.6 21.7 12.5 53 5.7 NNE 9 17 5 9 1015.6 - 0.0
31/03:00pm 23.3 21.5 11.0 46 6.8 NNE 11 17 6 9 1015.7 1015.7 0.0
31/02:30pm 23.4 21.5 10.5 44 7.1 ENE 11 17 6 9 1015.9 - 0.0
31/02:00pm 23.4 21.2 9.4 41 7.6 ENE 11 17 6 9 1016.3 1016.3 0.0
31/01:30pm 23.8 21.7 8.2 37 8.3 ENE 9 15 5 8 1016.7 - 0.0
31/01:00pm 24.3 22.1 7.9 35 8.7 NE 9 13 5 7 1017.3 1017.3 0.0
31/12:30pm 23.9 22.0 7.5 35 8.6 NE 7 13 4 7 1018.0 - 0.0
31/12:00pm 24.5 23.0 6.7 32 9.2 NNE 4 11 2 6 1018.6 1018.6 0.0
31/11:30am 23.0 21.5 6.7 35 8.4 NE 4 7 2 4 1019.4 - 0.0
31/11:00am 22.1 21.0 6.7 37 7.8 NE 2 6 1 3 1020.2 1020.2 0.0
31/10:30am 20.3 19.1 6.6 41 6.9 NE 2 7 1 4 1020.9 - 0.0
31/10:00am 18.5 17.7 6.7 46 5.9 CALM 0 2 0 1 1021.4 1021.4 0.0
31/09:30am 16.0 14.6 5.6 50 5.0 SSW 2 4 1 2 1021.7 - 0.0
31/09:00am 14.3 13.3 5.7 56 4.1 CALM 0 4 0 2 1022.0 1022.0 0.0
31/08:30am 12.8 11.8 5.7 62 3.3 CALM 0 2 0 1 1021.7 - 0.0
31/08:00am 11.1 9.3 5.4 68 2.6 WSW 4 6 2 3 1021.4 1021.4 0.0
31/07:30am 9.6 8.1 5.2 74 2.0 SW 2 4 1 2 1021.1 - 0.0
31/07:00am 7.1 5.8 4.2 82 1.2 CALM 0 2 0 1 1020.8 1020.8 0.0
31/06:30am 7.2 5.9 4.0 80 1.4 CALM 0 2 0 1 1020.5 - 0.0
31/06:00am 7.9 6.2 3.9 76 1.7 SW 2 4 1 2 1020.3 1020.3 0.0
31/05:30am 8.7 6.7 4.5 75 1.9 WSW 4 6 2 3 1020.3 - 0.0
31/05:00am 8.8 6.9 4.8 76 1.8 WSW 4 6 2 3 1020.1 1020.1 0.0
31/04:30am 7.7 6.4 4.3 79 1.5 CALM 0 2 0 1 1020.0 - 0.0
31/04:00am 8.3 7.2 5.1 80 1.4 CALM 0 2 0 1 1020.0 1020.0 0.0
31/03:30am 9.5 8.1 5.7 77 1.7 SW 2 6 1 3 1020.0 - 0.0
31/03:00am 10.2 9.1 8.3 88 0.9 SW 4 7 2 4 1020.0 1020.0 0.0
31/02:30am 10.1 9.4 8.7 91 0.7 SW 2 6 1 3 1020.0 - 0.0
31/02:00am 9.9 9.1 8.3 90 0.8 WSW 2 4 1 2 1020.0 1020.0 0.0
31/01:30am 10.2 9.9 8.8 91 0.7 CALM 0 2 0 1 1020.1 - 0.0
31/01:00am 11.0 10.7 10.1 94 0.5 WSW 2 6 1 3 1020.2 1020.2 0.0
31/12:30am 11.0 11.2 10.4 96 0.3 CALM 0 0 0 0 1020.2 - 0.0
31/12:00am 11.4 11.7 10.8 96 0.3 CALM 0 0 0 0 1020.3 1020.3 0.0
 
Date/Time
EST
Tmp

°C
App
Tmp
°C
Dew
Point
°C
Rel
Hum
%
Delta-T

°C
Wind Press
QNH
hPa
Press
MSL
hPa
Rain
since
9 am
mm
Dir
 
Spd
km/h
Gust
km/h
Spd
kts
Gust
kts
30/11:30pm 11.8 12.1 11.0 95 0.4 CALM 0 0 0 0 1020.3 - 0.0
30/11:00pm 12.4 13.0 11.8 96 0.3 CALM 0 0 0 0 1020.4 1020.4 0.0
30/10:30pm 12.5 13.0 11.7 95 0.4 CALM 0 0 0 0 1020.6 - 0.0
30/10:00pm 13.1 13.8 12.2 94 0.5 CALM 0 0 0 0 1020.8 1020.8 0.0
30/09:30pm 13.7 14.6 12.8 94 0.5 CALM 0 0 0 0 1020.8 - 0.0
30/09:00pm 14.7 15.4 13.4 92 0.7 E 2 6 1 3 1020.7 1020.7 0.0
30/08:30pm 14.5 14.8 13.4 93 0.6 ESE 4 6 2 3 1020.6 - 0.0
30/08:00pm 14.6 15.6 13.1 91 0.8 CALM 0 4 0 2 1020.5 1020.5 0.0
30/07:30pm 15.1 16.2 13.5 90 0.9 CALM 0 0 0 0 1020.3 - 0.0
30/07:00pm 15.5 16.4 13.0 85 1.4 CALM 0 0 0 0 1020.4 1020.4 0.0
30/06:30pm 16.7 17.3 13.2 80 2.0 NE 2 6 1 3 1019.9 - 0.0
30/06:00pm 18.0 18.5 12.9 72 2.8 ENE 2 6 1 3 1019.6 1019.6 0.0
30/05:30pm 19.3 18.8 12.1 63 4.0 NE 6 9 3 5 1019.1 - 0.0
30/05:00pm 20.7 19.5 9.6 49 5.9 NE 6 9 3 5 1018.9 1018.9 0.0
30/04:30pm 22.1 20.2 7.5 39 7.6 ENE 7 13 4 7 1018.8 - 0.0
30/04:00pm 24.5 21.7 -0.6 19 11.3 S 4 7 2 4 1018.5 1018.5 0.0
30/03:30pm 24.6 21.6 -2.0 17 11.7 S 4 9 2 5 1018.4 - 0.0
30/03:00pm 25.3 22.3 -1.5 17 12.0 SSW 4 9 2 5 1018.4 1018.4 0.0

Latest Capital City Observations: Canberra | Sydney | Melbourne | Brisbane | Adelaide | Perth | Hobart | Darwin

Other Formats:

Comma delimited format used in spreadsheet applications
http://www.bom.gov.au/fwo/IDQ60901/IDQ60901.94576.axf

JavaScript Object Notation format (JSON) in row-major order
http://www.bom.gov.au/fwo/IDQ60901/IDQ60901.94576.json